Time;durP1;ratioP1;P1;durP2;ratioP2;P2;SDS_P1;SDS_P2;PMS_P1;PMS_P2;Temp;Humidity;BMP_temperature;BMP_pressure;BME280_temperature;BME280_humidity;BME280_pressure;Samples;Min_cycle;Max_cycle;Signal;HPM_P1;HPM_P2
2024/01/21 00:02:14;;;;;;;4.70;1.45;;;1.30;63.60;;;;;;4989023;28;20039;-66
2024/01/21 00:04:40;;;;;;;4.53;1.33;;;;;;;;;;4990099;28;20044;-66
2024/01/21 00:07:06;;;;;;;4.00;1.40;;;1.40;62.50;;;;;;4991340;28;20050;-66
2024/01/21 00:09:31;;;;;;;3.70;1.17;;;1.40;67.30;;;;;;4985053;28;20064;-66
2024/01/21 00:11:57;;;;;;;6.00;1.83;;;1.30;66.90;;;;;;4987473;28;20045;-66
2024/01/21 00:14:23;;;;;;;4.45;1.75;;;1.40;64.20;;;;;;4982999;28;20030;-66
2024/01/21 00:16:48;;;;;;;5.68;1.85;;;1.40;62.60;;;;;;4995048;28;20053;-66
2024/01/21 00:19:14;;;;;;;4.18;1.40;;;1.40;62.20;;;;;;4989590;28;20120;-65
2024/01/21 00:21:39;;;;;;;5.10;1.70;;;1.50;62.30;;;;;;4990619;28;20041;-67
2024/01/21 00:24:05;;;;;;;4.75;1.80;;;1.50;63.10;;;;;;4979878;28;20081;-66
2024/01/21 00:26:31;;;;;;;3.80;1.40;;;1.50;63.30;;;;;;4991775;28;20014;-66
2024/01/21 00:29:00;;;;;;;5.53;1.90;;;1.50;64.10;;;;;;4987058;28;20030;-65
2024/01/21 00:31:27;;;;;;;5.55;1.83;;;1.50;62.90;;;;;;4988348;28;20038;-65
2024/01/21 00:33:53;;;;;;;5.65;1.80;;;1.50;63.10;;;;;;4975707;28;20033;-66
2024/01/21 00:36:18;;;;;;;5.13;1.40;;;1.60;61.60;;;;;;4986194;28;20034;-65
2024/01/21 00:38:44;;;;;;;7.15;1.63;;;1.60;60.90;;;;;;4977241;28;20031;-65
2024/01/21 00:41:16;;;;;;;5.53;2.15;;;1.70;62.10;;;;;;4984037;28;20133;-65
2024/01/21 00:43:42;;;;;;;5.07;1.70;;;;;;;;;;4977916;28;20506;-65
2024/01/21 00:46:08;;;;;;;4.30;1.60;;;1.70;61.90;;;;;;4986341;28;20410;-65
2024/01/21 00:48:34;;;;;;;4.65;1.92;;;1.70;62.40;;;;;;4978536;28;20045;-65
2024/01/21 00:51:01;;;;;;;6.85;2.08;;;1.70;63.80;;;;;;4985865;28;20061;-65
2024/01/21 00:53:26;;;;;;;5.32;1.67;;;1.70;62.80;;;;;;4979046;28;20039;-65
2024/01/21 00:55:52;;;;;;;4.32;1.42;;;1.80;65.90;;;;;;4981238;28;20030;-64
2024/01/21 00:58:18;;;;;;;2.70;1.20;;;1.70;61.80;;;;;;4984568;28;20049;-64
2024/01/21 01:00:43;;;;;;;8.10;1.80;;;1.70;63.40;;;;;;4979746;28;20031;-64
2024/01/21 01:03:09;;;;;;;5.57;2.10;;;1.70;63.10;;;;;;4986041;28;20073;-65
2024/01/21 01:05:35;;;;;;;4.75;1.60;;;1.70;64.90;;;;;;4983981;28;20112;-65
2024/01/21 01:08:01;;;;;;;4.68;1.55;;;1.70;65.30;;;;;;4982667;28;20044;-64
2024/01/21 01:10:27;;;;;;;5.82;1.98;;;1.70;65.70;;;;;;4985250;28;20426;-65
2024/01/21 01:12:52;;;;;;;8.20;2.30;;;1.70;67.30;;;;;;4981598;28;20027;-65
2024/01/21 01:15:18;;;;;;;4.90;1.83;;;1.70;64.40;;;;;;4987723;28;20030;-64
2024/01/21 01:17:44;;;;;;;6.63;2.35;;;1.70;65.20;;;;;;4982026;28;20030;-64
2024/01/21 01:20:10;;;;;;;7.50;2.50;;;1.80;65.00;;;;;;4979512;28;20042;-64
2024/01/21 01:22:36;;;;;;;7.85;2.45;;;1.90;64.80;;;;;;4983259;28;20026;-64
2024/01/21 01:25:02;;;;;;;5.07;1.80;;;1.80;64.90;;;;;;4983110;28;20035;-64
2024/01/21 01:27:27;;;;;;;6.28;2.17;;;1.80;64.20;;;;;;4981059;28;20085;-65
2024/01/21 01:29:53;;;;;;;5.90;2.13;;;1.80;67.10;;;;;;4986738;28;20014;-65
2024/01/21 01:32:18;;;;;;;5.38;1.55;;;1.80;65.20;;;;;;4986440;28;20459;-65
2024/01/21 01:34:44;;;;;;;6.10;2.50;;;1.80;65.70;;;;;;4981683;28;20042;-64
2024/01/21 01:37:11;;;;;;;6.30;1.92;;;1.80;65.20;;;;;;4978592;28;20042;-64
2024/01/21 01:39:37;;;;;;;7.82;2.45;;;1.80;67.00;;;;;;4981065;28;20034;-66
2024/01/21 01:42:02;;;;;;;6.85;2.50;;;1.80;63.40;;;;;;4984885;28;20720;-66
2024/01/21 01:44:28;;;;;;;8.18;3.45;;;1.90;63.90;;;;;;4984238;28;20029;-66
2024/01/21 01:46:54;;;;;;;5.93;2.13;;;2.00;64.80;;;;;;4989245;28;20049;-66
2024/01/21 01:49:20;;;;;;;6.70;2.15;;;2.00;66.40;;;;;;4981553;28;20042;-66
2024/01/21 01:51:46;;;;;;;5.97;2.13;;;2.00;63.80;;;;;;4984385;28;20092;-66
2024/01/21 01:54:13;;;;;;;8.93;2.40;;;2.00;64.30;;;;;;4981106;28;20125;-66
2024/01/21 01:56:39;;;;;;;7.20;2.67;;;2.00;63.30;;;;;;4982070;28;20031;-66
2024/01/21 01:59:09;;;;;;;9.10;1.98;;;2.00;62.80;;;;;;4979436;28;20066;-66
2024/01/21 02:01:36;;;;;;;6.18;2.35;;;2.10;62.40;;;;;;4980120;28;20455;-66
2024/01/21 02:04:03;;;;;;;7.07;2.50;;;2.10;62.80;;;;;;4982982;28;20093;-66
2024/01/21 02:06:29;;;;;;;6.88;2.58;;;2.10;64.80;;;;;;4985422;28;20486;-66
2024/01/21 02:08:54;;;;;;;6.97;2.35;;;2.10;62.10;;;;;;4984529;28;20023;-66
2024/01/21 02:11:20;;;;;;;7.03;2.28;;;2.10;63.00;;;;;;4982122;28;20034;-66
2024/01/21 02:13:45;;;;;;;8.52;2.42;;;2.10;63.10;;;;;;4977581;28;20034;-66
2024/01/21 02:16:11;;;;;;;7.30;2.00;;;2.20;62.60;;;;;;4982806;28;20409;-66
2024/01/21 02:18:38;;;;;;;6.57;2.05;;;2.20;62.50;;;;;;4974649;28;20041;-66
2024/01/21 02:21:04;;;;;;;5.63;1.90;;;2.20;64.10;;;;;;4974869;28;20092;-66
2024/01/21 02:23:30;;;;;;;9.35;2.65;;;2.20;64.20;;;;;;4976273;28;20038;-66
2024/01/21 02:25:56;;;;;;;6.55;2.00;;;2.20;62.70;;;;;;4978801;28;20142;-65
2024/01/21 02:28:22;;;;;;;6.13;1.88;;;2.20;63.40;;;;;;4986025;28;20113;-66
2024/01/21 02:30:47;;;;;;;6.97;2.33;;;2.20;61.70;;;;;;4979052;28;20395;-66
2024/01/21 02:33:13;;;;;;;6.70;2.38;;;2.30;60.80;;;;;;4979650;28;20039;-66
2024/01/21 02:35:39;;;;;;;6.82;1.95;;;2.30;61.30;;;;;;4978342;28;20043;-66
2024/01/21 02:38:04;;;;;;;6.80;2.40;;;2.20;61.40;;;;;;4980379;28;20026;-66
2024/01/21 02:40:31;;;;;;;6.55;2.63;;;2.30;62.00;;;;;;4979861;28;20034;-66
2024/01/21 02:42:56;;;;;;;4.70;1.70;;;2.30;62.60;;;;;;4979024;28;20037;-66
2024/01/21 02:45:22;;;;;;;7.60;2.78;;;2.30;61.80;;;;;;4986317;28;20026;-65
2024/01/21 02:47:47;;;;;;;6.45;2.63;;;2.30;60.80;;;;;;4976139;28;20093;-65
2024/01/21 02:50:13;;;;;;;13.95;2.60;;;2.40;59.50;;;;;;4982225;28;20394;-64
2024/01/21 02:52:39;;;;;;;6.93;2.28;;;2.40;59.90;;;;;;4974103;28;20085;-64
2024/01/21 02:55:04;;;;;;;7.47;2.53;;;2.40;60.90;;;;;;4979437;28;20030;-64
2024/01/21 02:57:30;;;;;;;5.45;1.90;;;2.40;60.10;;;;;;4975279;28;20742;-65
2024/01/21 02:59:56;;;;;;;9.05;2.25;;;2.40;61.30;;;;;;4971459;28;20170;-64
2024/01/21 03:02:22;;;;;;;6.05;2.28;;;2.40;60.30;;;;;;4982954;28;20122;-64
2024/01/21 03:04:47;;;;;;;7.95;2.42;;;2.40;60.30;;;;;;4979326;28;20699;-64
2024/01/21 03:07:13;;;;;;;5.57;2.22;;;2.40;61.00;;;;;;4983401;28;20038;-64
2024/01/21 03:09:39;;;;;;;7.07;2.60;;;2.40;61.40;;;;;;4979308;28;20026;-64
2024/01/21 03:12:05;;;;;;;7.20;2.25;;;2.40;60.70;;;;;;4978920;28;20027;-64
2024/01/21 03:14:30;;;;;;;6.15;2.08;;;2.50;61.20;;;;;;4990978;28;20027;-65
2024/01/21 03:16:57;;;;;;;8.88;2.17;;;2.40;61.60;;;;;;4981657;28;20053;-64
2024/01/21 03:19:22;;;;;;;6.28;2.30;;;2.40;63.80;;;;;;4976396;28;20046;-65
2024/01/21 03:21:49;;;;;;;6.65;2.45;;;2.30;63.00;;;;;;4988136;28;20064;-64
2024/01/21 03:24:14;;;;;;;5.30;2.13;;;2.30;64.50;;;;;;4976796;28;20030;-65
2024/01/21 03:26:40;;;;;;;7.20;2.33;;;2.20;67.60;;;;;;4984135;28;20037;-64
2024/01/21 03:29:05;;;;;;;8.20;2.63;;;2.10;62.60;;;;;;4983662;28;20023;-64
2024/01/21 03:31:31;;;;;;;7.10;2.72;;;2.20;63.90;;;;;;4982666;28;20029;-64
2024/01/21 03:33:57;;;;;;;6.75;2.20;;;2.20;64.10;;;;;;4980054;28;20035;-64
2024/01/21 03:36:22;;;;;;;7.95;2.28;;;2.10;65.20;;;;;;4985383;28;20034;-64
2024/01/21 03:38:50;;;;;;;5.88;2.05;;;2.10;65.10;;;;;;4975143;28;20035;-64
2024/01/21 03:41:17;;;;;;;6.10;2.17;;;2.10;65.20;;;;;;4983423;28;20170;-64
2024/01/21 03:43:43;;;;;;;6.63;2.60;;;2.00;66.40;;;;;;4981683;28;20023;-64
2024/01/21 03:46:08;;;;;;;7.95;2.72;;;2.00;65.70;;;;;;4980726;28;20765;-64
2024/01/21 03:48:34;;;;;;;7.80;2.90;;;2.00;65.80;;;;;;4985499;28;20043;-64
2024/01/21 03:50:59;;;;;;;6.00;2.17;;;1.90;65.90;;;;;;4979870;28;20038;-66
2024/01/21 03:53:25;;;;;;;6.43;2.40;;;1.90;66.50;;;;;;4984719;28;20036;-65
2024/01/21 03:55:51;;;;;;;5.45;1.83;;;1.90;69.70;;;;;;4979634;28;20054;-65
2024/01/21 03:58:16;;;;;;;7.45;2.65;;;1.90;69.60;;;;;;4984364;28;20118;-66
2024/01/21 04:00:42;;;;;;;6.40;2.30;;;1.90;66.00;;;;;;4989344;28;20374;-67
2024/01/21 04:03:07;;;;;;;6.55;2.42;;;1.90;65.80;;;;;;4987103;28;20036;-67
2024/01/21 04:05:33;;;;;;;6.20;2.17;;;1.90;65.90;;;;;;4985852;28;20667;-67
2024/01/21 04:07:59;;;;;;;6.22;2.15;;;2.00;64.50;;;;;;4982967;28;20026;-67
2024/01/21 04:10:25;;;;;;;7.40;2.50;;;2.00;63.80;;;;;;4984095;28;20022;-67
2024/01/21 04:12:51;;;;;;;7.22;2.38;;;2.00;64.30;;;;;;4979731;28;20745;-67
2024/01/21 04:15:16;;;;;;;7.30;2.50;;;2.00;63.40;;;;;;4979045;28;20042;-67
2024/01/21 04:17:42;;;;;;;6.60;2.30;;;2.00;63.50;;;;;;4987770;28;20041;-67
2024/01/21 04:20:09;;;;;;;8.48;2.45;;;2.00;64.70;;;;;;4986024;28;20042;-67
2024/01/21 04:22:35;;;;;;;5.47;2.08;;;2.00;62.90;;;;;;4983706;28;20038;-67
2024/01/21 04:25:00;;;;;;;7.10;2.13;;;2.00;63.70;;;;;;4985587;28;20069;-67
2024/01/21 04:27:26;;;;;;;7.28;2.20;;;2.00;62.90;;;;;;4983670;28;20355;-67
2024/01/21 04:29:51;;;;;;;6.47;2.30;;;2.10;63.40;;;;;;4988958;28;20502;-67
2024/01/21 04:32:17;;;;;;;5.50;1.98;;;2.10;62.80;;;;;;4981626;28;20057;-67
2024/01/21 04:34:43;;;;;;;8.88;2.47;;;2.10;64.00;;;;;;4988021;28;20029;-67
2024/01/21 04:37:08;;;;;;;9.63;2.50;;;2.00;62.20;;;;;;4983231;28;20057;-67
2024/01/21 04:39:34;;;;;;;5.13;2.00;;;2.00;63.30;;;;;;4981488;28;20031;-67
2024/01/21 04:41:59;;;;;;;7.53;2.53;;;2.10;61.90;;;;;;4982867;28;20478;-67
2024/01/21 04:44:25;;;;;;;6.78;2.25;;;2.10;64.10;;;;;;4981225;28;20112;-67
2024/01/21 04:46:51;;;;;;;7.00;2.20;;;2.00;61.60;;;;;;4979609;28;20023;-67
2024/01/21 04:49:17;;;;;;;6.60;2.30;;;2.10;64.20;;;;;;4982381;28;20061;-67
2024/01/21 04:51:43;;;;;;;7.82;2.63;;;2.00;63.10;;;;;;4979893;28;20039;-67
2024/01/21 04:54:09;;;;;;;5.88;2.13;;;2.00;62.00;;;;;;4989635;28;20041;-67
2024/01/21 04:56:36;;;;;;;6.38;2.03;;;2.00;64.60;;;;;;4988307;28;20065;-67
2024/01/21 04:59:02;;;;;;;7.75;2.65;;;2.00;63.00;;;;;;4979852;28;20019;-67
2024/01/21 05:01:28;;;;;;;6.18;2.15;;;2.00;62.60;;;;;;4987233;28;20030;-67
2024/01/21 05:03:53;;;;;;;5.45;2.22;;;2.10;62.70;;;;;;4976018;28;20027;-67
2024/01/21 05:06:20;;;;;;;6.72;2.45;;;2.00;64.90;;;;;;4979878;28;20360;-67
2024/01/21 05:08:45;;;;;;;6.38;2.17;;;1.90;65.00;;;;;;4981468;28;20074;-65
2024/01/21 05:11:14;;;;;;;9.40;2.55;;;1.90;64.70;;;;;;4979989;28;20066;-65
2024/01/21 05:13:40;;;;;;;7.38;2.45;;;1.90;64.60;;;;;;4978179;28;20019;-65
2024/01/21 05:16:05;;;;;;;8.80;2.70;;;1.80;66.20;;;;;;4982920;28;20093;-65
2024/01/21 05:18:31;;;;;;;6.97;2.30;;;1.80;64.30;;;;;;4982052;28;20034;-65
2024/01/21 05:20:56;;;;;;;11.18;2.40;;;1.80;65.00;;;;;;4979409;28;20063;-65
2024/01/21 05:23:22;;;;;;;4.35;1.63;;;1.80;64.80;;;;;;4979955;28;20022;-65
2024/01/21 05:25:50;;;;;;;7.38;2.60;;;1.80;63.30;;;;;;4980028;28;20026;-65
2024/01/21 05:28:16;;;;;;;6.95;2.22;;;1.90;65.80;;;;;;4978971;28;20019;-65
2024/01/21 05:30:42;;;;;;;6.07;2.13;;;1.90;65.30;;;;;;4986290;28;20181;-65
2024/01/21 05:33:07;;;;;;;7.25;2.88;;;1.90;64.50;;;;;;4980432;28;20508;-65
2024/01/21 05:35:33;;;;;;;7.78;2.50;;;2.00;63.60;;;;;;4979033;28;20030;-65
2024/01/21 05:37:58;;;;;;;9.20;3.13;;;2.00;65.90;;;;;;4984293;28;20045;-65
2024/01/21 05:40:25;;;;;;;7.10;2.72;;;2.00;63.80;;;;;;4986334;28;20031;-65
2024/01/21 05:42:51;;;;;;;8.00;2.67;;;2.00;64.50;;;;;;4979090;28;20526;-65
2024/01/21 05:45:17;;;;;;;7.35;2.40;;;1.90;64.70;;;;;;4987386;28;20223;-65
2024/01/21 05:47:42;;;;;;;7.30;2.72;;;1.90;65.80;;;;;;4985981;28;20022;-66
2024/01/21 05:50:08;;;;;;;6.32;2.60;;;1.90;66.20;;;;;;4985831;28;20047;-65
2024/01/21 05:52:36;;;;;;;8.25;2.72;;;1.90;67.20;;;;;;4981992;28;20038;-65
2024/01/21 05:55:03;;;;;;;7.55;2.67;;;1.80;67.60;;;;;;4976397;28;20498;-65
2024/01/21 05:57:29;;;;;;;11.48;3.75;;;1.90;67.00;;;;;;4984349;28;20093;-65
2024/01/21 05:59:55;;;;;;;10.70;3.58;;;1.80;65.90;;;;;;4981151;28;20051;-65
2024/01/21 06:02:20;;;;;;;6.40;2.38;;;1.80;66.30;;;;;;4979435;28;20048;-65
2024/01/21 06:04:46;;;;;;;9.45;3.63;;;1.80;68.30;;;;;;4976475;28;20118;-65
2024/01/21 06:07:12;;;;;;;10.60;3.00;;;1.80;68.30;;;;;;4981767;28;20031;-66
2024/01/21 06:09:37;;;;;;;7.75;2.72;;;1.80;68.20;;;;;;4981301;28;20089;-65
2024/01/21 06:12:03;;;;;;;8.95;2.90;;;1.80;66.60;;;;;;4977957;28;20027;-65
2024/01/21 06:14:29;;;;;;;8.00;2.60;;;1.70;69.20;;;;;;4981690;28;20022;-65
2024/01/21 06:16:54;;;;;;;6.30;2.58;;;1.70;69.50;;;;;;4977881;28;20034;-65
2024/01/21 06:19:20;;;;;;;8.77;2.50;;;1.70;69.10;;;;;;4982991;28;20054;-66
2024/01/21 06:21:45;;;;;;;10.07;3.95;;;1.70;70.90;;;;;;4979497;28;20034;-65
2024/01/21 06:24:12;;;;;;;7.20;3.00;;;1.80;66.60;;;;;;4984645;28;20113;-65
2024/01/21 06:26:38;;;;;;;8.90;2.45;;;1.70;68.70;;;;;;4978954;28;20459;-65
2024/01/21 06:29:04;;;;;;;7.30;2.72;;;1.70;71.10;;;;;;4980882;28;20014;-65
2024/01/21 06:31:30;;;;;;;10.45;3.90;;;1.70;70.40;;;;;;4988400;28;20481;-65
2024/01/21 06:33:56;;;;;;;7.93;3.00;;;1.70;70.20;;;;;;4976287;28;20473;-65
2024/01/21 06:36:25;;;;;;;7.63;2.80;;;1.70;72.10;;;;;;4982859;28;20035;-65
2024/01/21 06:38:51;;;;;;;8.48;3.03;;;1.70;71.70;;;;;;4979965;28;20128;-65
2024/01/21 06:41:16;;;;;;;9.20;3.17;;;1.70;73.80;;;;;;4978915;28;20046;-65
2024/01/21 06:43:42;;;;;;;10.75;3.58;;;1.70;74.30;;;;;;4981190;28;20038;-65
2024/01/21 06:46:08;;;;;;;3.63;1.85;;;1.70;72.70;;;;;;4978480;28;20101;-65
2024/01/21 06:48:34;;;;;;;9.63;2.22;;;1.70;73.10;;;;;;4987084;28;20039;-65
2024/01/21 06:51:04;;;;;;;9.25;3.63;;;1.70;75.10;;;;;;4980545;28;20401;-65
2024/01/21 06:53:30;;;;;;;9.02;3.28;;;1.60;74.00;;;;;;4983315;28;20500;-65
2024/01/21 06:55:56;;;;;;;9.88;3.15;;;1.50;74.70;;;;;;4981258;28;20509;-65
2024/01/21 06:58:21;;;;;;;11.77;4.47;;;1.50;77.50;;;;;;4987787;28;20026;-65
2024/01/21 07:00:51;;;;;;;9.50;3.75;;;1.50;78.90;;;;;;4984787;28;20076;-65
2024/01/21 07:03:18;;;;;;;8.02;3.22;;;1.50;79.30;;;;;;4979504;28;20029;-65
2024/01/21 07:05:43;;;;;;;7.70;2.92;;;1.40;81.70;;;;;;4980615;28;20026;-65
2024/01/21 07:08:09;;;;;;;9.68;3.83;;;1.40;80.70;;;;;;4981647;28;20045;-65
2024/01/21 07:10:34;;;;;;;12.77;4.03;;;1.40;81.20;;;;;;4983128;28;20027;-65
2024/01/21 07:13:00;;;;;;;8.65;3.33;;;1.40;82.90;;;;;;4985312;28;20481;-64
2024/01/21 07:15:26;;;;;;;8.85;3.20;;;1.40;84.40;;;;;;4979732;28;20042;-65
2024/01/21 07:17:51;;;;;;;9.75;3.80;;;1.40;84.80;;;;;;4984172;28;20478;-65
2024/01/21 07:20:17;;;;;;;9.20;3.13;;;1.40;83.50;;;;;;4991054;28;20477;-65
2024/01/21 07:22:42;;;;;;;11.57;3.08;;;1.50;86.00;;;;;;4988247;28;20474;-66
2024/01/21 07:25:08;;;;;;;6.63;2.45;;;1.50;86.00;;;;;;4982989;28;20038;-65
2024/01/21 07:27:34;;;;;;;11.70;4.05;;;1.50;88.50;;;;;;4983313;28;20022;-65
2024/01/21 07:30:00;;;;;;;11.10;3.13;;;1.50;86.40;;;;;;4986938;28;20031;-66
2024/01/21 07:32:25;;;;;;;8.60;3.03;;;1.50;88.40;;;;;;4989588;28;20033;-66
2024/01/21 07:34:51;;;;;;;10.50;3.65;;;1.50;88.90;;;;;;4980438;28;20508;-66
2024/01/21 07:37:17;;;;;;;8.57;3.15;;;1.50;84.80;;;;;;4982584;28;20109;-66
2024/01/21 07:39:42;;;;;;;9.48;4.00;;;1.50;88.20;;;;;;4988304;28;20035;-66
2024/01/21 07:42:08;;;;;;;10.10;3.55;;;1.50;88.50;;;;;;4985283;28;20101;-66
2024/01/21 07:44:33;;;;;;;9.48;3.65;;;1.50;89.30;;;;;;4981903;28;20032;-64
2024/01/21 07:46:59;;;;;;;11.85;4.75;;;1.50;91.00;;;;;;4973782;28;20015;-65
2024/01/21 07:49:25;;;;;;;10.27;3.47;;;1.50;89.00;;;;;;4990655;28;20510;-65
2024/01/21 07:51:51;;;;;;;11.68;4.35;;;1.50;89.40;;;;;;4987360;28;20030;-65
2024/01/21 07:54:17;;;;;;;9.50;2.90;;;1.50;88.10;;;;;;4986711;28;20035;-65
2024/01/21 07:56:42;;;;;;;11.48;4.30;;;1.50;90.60;;;;;;4990533;28;20029;-65
2024/01/21 07:59:08;;;;;;;10.43;3.83;;;1.60;89.20;;;;;;4983807;28;20060;-64
2024/01/21 08:01:33;;;;;;;7.97;3.17;;;1.70;89.60;;;;;;4978820;28;20375;-65
2024/01/21 08:03:59;;;;;;;12.90;3.83;;;1.60;90.10;;;;;;4974699;28;20038;-64
2024/01/21 08:06:25;;;;;;;11.00;4.13;;;1.70;87.60;;;;;;4987390;28;20845;-64
2024/01/21 08:08:51;;;;;;;11.13;3.92;;;1.70;86.00;;;;;;4975721;28;20494;-64
2024/01/21 08:11:17;;;;;;;11.65;4.03;;;1.70;87.80;;;;;;4985894;28;20042;-65
2024/01/21 08:13:43;;;;;;;10.13;3.42;;;1.70;87.40;;;;;;4981605;28;20394;-65
2024/01/21 08:16:09;;;;;;;10.68;3.67;;;1.70;86.10;;;;;;4990620;28;20022;-65
2024/01/21 08:18:35;;;;;;;11.57;4.07;;;1.70;86.70;;;;;;4984123;28;20034;-65
2024/01/21 08:21:01;;;;;;;11.85;4.85;;;1.70;88.70;;;;;;4983582;28;20030;-65
2024/01/21 08:23:27;;;;;;;10.95;4.63;;;1.70;88.20;;;;;;4985961;28;20378;-66
2024/01/21 08:25:53;;;;;;;11.95;4.05;;;1.70;90.00;;;;;;4983663;28;20050;-66
2024/01/21 08:28:19;;;;;;;7.43;2.60;;;1.70;87.60;;;;;;4983853;28;20019;-66
2024/01/21 08:30:44;;;;;;;10.60;3.85;;;1.70;86.50;;;;;;4984733;28;20446;-64
2024/01/21 08:33:10;;;;;;;9.93;3.95;;;1.80;90.20;;;;;;4987183;28;20454;-64
2024/01/21 08:35:36;;;;;;;10.45;3.72;;;1.80;86.80;;;;;;4993581;28;20049;-64
2024/01/21 08:38:03;;;;;;;9.68;3.92;;;1.80;85.90;;;;;;4988215;28;20458;-64
2024/01/21 08:40:28;;;;;;;9.65;3.60;;;1.80;88.70;;;;;;4987055;28;20042;-66
2024/01/21 08:42:54;;;;;;;11.10;4.20;;;1.80;89.00;;;;;;4986353;28;20069;-66
2024/01/21 08:45:20;;;;;;;13.35;4.65;;;1.90;84.00;;;;;;4983653;28;20061;-65
2024/01/21 08:47:45;;;;;;;8.35;3.55;;;1.80;89.20;;;;;;4987959;28;20371;-66
2024/01/21 08:50:11;;;;;;;11.68;4.50;;;1.80;88.70;;;;;;4986470;28;20046;-65
2024/01/21 08:52:37;;;;;;;12.63;4.35;;;1.80;86.90;;;;;;4977636;28;20038;-66
2024/01/21 08:55:04;;;;;;;13.68;4.70;;;1.80;87.00;;;;;;4982265;28;20030;-66
2024/01/21 08:57:30;;;;;;;14.38;5.15;;;1.80;86.90;;;;;;4986340;28;20022;-65
2024/01/21 08:59:55;;;;;;;12.32;4.47;;;1.80;90.50;;;;;;4989731;28;20030;-66
2024/01/21 09:02:21;;;;;;;11.00;4.45;;;1.80;90.60;;;;;;4986334;28;20113;-65
2024/01/21 09:04:47;;;;;;;12.10;4.60;;;1.80;89.50;;;;;;4978512;28;20132;-65
2024/01/21 09:07:12;;;;;;;14.20;5.13;;;1.80;88.50;;;;;;4980361;28;20105;-65
2024/01/21 09:09:38;;;;;;;14.88;5.53;;;1.80;89.60;;;;;;4982781;28;20029;-66
2024/01/21 09:12:04;;;;;;;13.05;4.82;;;1.80;91.50;;;;;;4980142;28;20126;-65
2024/01/21 09:14:30;;;;;;;17.20;5.70;;;1.90;87.80;;;;;;4986629;28;20599;-66
2024/01/21 09:16:56;;;;;;;12.48;5.00;;;2.00;85.90;;;;;;4979899;28;20034;-65
2024/01/21 09:19:22;;;;;;;12.38;4.57;;;2.00;83.20;;;;;;4973629;28;20031;-65
2024/01/21 09:21:47;;;;;;;15.45;5.72;;;2.20;86.40;;;;;;4980231;28;20057;-65
2024/01/21 09:24:14;;;;;;;13.32;5.00;;;2.20;81.30;;;;;;4987034;28;20078;-65
2024/01/21 09:26:41;;;;;;;11.10;4.43;;;2.30;82.40;;;;;;4983418;28;20051;-65
2024/01/21 09:29:06;;;;;;;13.82;5.22;;;2.40;81.20;;;;;;4974344;28;20019;-65
2024/01/21 09:31:32;;;;;;;12.18;4.60;;;2.40;82.10;;;;;;4984292;28;20024;-66
2024/01/21 09:33:58;;;;;;;13.65;4.47;;;2.50;84.00;;;;;;4981903;28;20038;-66
2024/01/21 09:36:23;;;;;;;10.07;4.35;;;2.70;86.90;;;;;;4986333;28;20026;-65
2024/01/21 09:38:51;;;;;;;16.58;5.57;;;2.70;85.00;;;;;;4982095;28;20022;-66
2024/01/21 09:41:36;;;;;;;10.15;3.97;;;2.70;84.40;;;;;;4976849;28;20482;-66
2024/01/21 09:44:02;;;;;;;11.32;4.88;;;2.60;84.40;;;;;;4982599;28;20032;-65
2024/01/21 09:46:28;;;;;;;12.38;4.65;;;2.60;88.40;;;;;;4972390;28;20530;-65
2024/01/21 09:48:55;;;;;;;11.27;5.28;;;2.60;86.00;;;;;;4975357;28;20030;-65
2024/01/21 09:51:22;;;;;;;9.93;4.57;;;2.70;87.90;;;;;;4988742;28;20031;-65
2024/01/21 09:53:48;;;;;;;10.98;4.72;;;2.70;86.50;;;;;;4991875;28;20027;-64
2024/01/21 09:56:14;;;;;;;14.48;4.75;;;2.80;87.40;;;;;;4978808;28;20509;-64
2024/01/21 09:58:44;;;;;;;10.63;4.05;;;3.00;84.40;;;;;;4989121;28;20474;-64
2024/01/21 10:01:10;;;;;;;;;;;3.00;84.60;;;;;;4978759;28;20066;-64
2024/01/21 10:03:35;;;;;;;11.93;4.63;;;3.00;81.80;;;;;;4983156;28;19956;-65
2024/01/21 10:06:01;;;;;;;10.88;4.60;;;2.90;87.20;;;;;;4976832;28;20355;-64
2024/01/21 10:08:28;;;;;;;13.13;4.95;;;2.80;83.40;;;;;;4985452;28;20040;-65
2024/01/21 10:10:54;;;;;;;9.77;3.95;;;2.80;87.30;;;;;;4984390;28;20041;-65
2024/01/21 10:13:19;;;;;;;13.82;4.55;;;2.80;85.60;;;;;;4982769;28;20708;-65
2024/01/21 10:15:45;;;;;;;12.82;4.15;;;2.80;84.40;;;;;;4981953;28;20038;-65
2024/01/21 10:18:11;;;;;;;14.48;5.55;;;2.90;88.40;;;;;;4984243;28;20531;-64
2024/01/21 10:20:37;;;;;;;12.77;5.32;;;3.00;89.40;;;;;;4989265;28;20078;-65
2024/01/21 10:23:11;;;;;;;12.15;4.35;;;3.00;89.10;;;;;;4993560;28;20493;-65
2024/01/21 10:25:40;;;;;;;10.95;4.55;;;3.10;90.90;;;;;;4986309;28;20493;-65
2024/01/21 10:28:06;;;;;;;10.13;4.45;;;3.20;90.50;;;;;;4976434;28;20022;-64
2024/01/21 10:30:32;;;;;;;9.48;4.15;;;3.20;91.90;;;;;;4982749;28;20215;-65
2024/01/21 10:32:58;;;;;;;14.10;4.18;;;3.20;92.50;;;;;;4976909;28;20023;-64
2024/01/21 10:35:24;;;;;;;10.75;4.50;;;3.30;92.90;;;;;;4989159;28;20053;-65
2024/01/21 10:37:49;;;;;;;13.52;5.38;;;3.30;93.70;;;;;;4977755;28;20018;-66
2024/01/21 10:40:15;;;;;;;8.25;3.58;;;3.40;95.80;;;;;;4979938;28;20027;-65
2024/01/21 10:42:41;;;;;;;11.77;4.55;;;3.40;95.20;;;;;;4985073;28;20121;-65
2024/01/21 10:45:07;;;;;;;10.77;4.32;;;3.40;96.00;;;;;;4979786;28;20505;-65
2024/01/21 10:47:34;;;;;;;11.88;4.53;;;3.60;96.40;;;;;;4984838;28;20508;-65
2024/01/21 10:50:01;;;;;;;11.68;4.70;;;3.70;97.30;;;;;;4978158;28;20031;-65
2024/01/21 10:52:27;;;;;;;12.38;5.30;;;3.80;97.30;;;;;;4975366;28;20034;-65
2024/01/21 10:54:54;;;;;;;12.20;5.00;;;3.90;97.30;;;;;;4979285;28;20031;-65
2024/01/21 10:57:19;;;;;;;11.90;4.88;;;3.90;96.90;;;;;;4982060;28;20442;-65
2024/01/21 10:59:46;;;;;;;10.10;4.25;;;3.90;98.30;;;;;;4981714;28;20101;-63
2024/01/21 11:02:12;;;;;;;11.60;4.72;;;3.80;97.40;;;;;;4976096;28;20027;-64
2024/01/21 11:04:38;;;;;;;9.63;3.50;;;3.80;98.60;;;;;;4979464;28;20497;-63
2024/01/21 11:07:04;;;;;;;11.00;4.68;;;3.80;99.70;;;;;;4980702;28;20029;-63
2024/01/21 11:09:33;;;;;;;9.48;3.67;;;3.90;99.50;;;;;;4976614;28;20146;-64
2024/01/21 11:12:01;;;;;;;11.13;3.83;;;3.90;99.90;;;;;;4981107;28;20102;-63
2024/01/21 11:14:34;;;;;;;13.50;4.30;;;4.00;99.90;;;;;;4980011;28;20505;-64
2024/01/21 11:17:08;;;;;;;13.50;5.18;;;4.00;99.90;;;;;;4983775;28;20030;-64
2024/01/21 11:19:53;;;;;;;12.30;4.55;;;3.90;99.90;;;;;;4981869;28;20037;-64
2024/01/21 11:22:21;;;;;;;9.77;3.95;;;3.90;99.90;;;;;;4985491;28;20471;-64
2024/01/21 11:24:47;;;;;;;12.90;6.13;;;3.90;99.90;;;;;;4981274;28;20026;-64
2024/01/21 11:27:24;;;;;;;8.38;3.45;;;4.00;99.90;;;;;;4977955;28;20023;-64
2024/01/21 11:29:53;;;;;;;11.20;5.03;;;4.00;99.90;;;;;;4980118;28;20049;-64
2024/01/21 11:32:30;;;;;;;12.60;4.60;;;3.90;99.90;;;;;;4981668;28;20069;-64
2024/01/21 11:35:09;;;;;;;13.27;4.68;;;3.90;99.90;;;;;;4976351;28;20054;-63
2024/01/21 11:37:36;;;;;;;9.90;4.20;;;3.90;99.90;;;;;;4977260;28;20895;-64
2024/01/21 11:40:03;;;;;;;13.18;5.18;;;4.00;99.90;;;;;;4984268;28;20494;-64
2024/01/21 11:42:32;;;;;;;14.02;5.32;;;4.20;99.90;;;;;;4984515;28;20550;-64
2024/01/21 11:45:05;;;;;;;11.80;4.95;;;4.30;99.90;;;;;;4984005;28;20478;-64
2024/01/21 11:47:32;;;;;;;11.65;4.47;;;4.30;99.90;;;;;;4982792;28;20023;-64
2024/01/21 11:50:00;;;;;;;12.25;4.68;;;4.20;99.90;;;;;;4989754;28;20402;-64
2024/01/21 11:52:25;;;;;;;14.57;5.28;;;4.30;99.90;;;;;;4989011;28;20027;-64
2024/01/21 11:54:51;;;;;;;14.10;6.22;;;4.20;99.90;;;;;;4983198;28;20037;-64
2024/01/21 11:57:19;;;;;;;15.32;5.80;;;4.00;99.90;;;;;;4987054;28;20030;-64
2024/01/21 11:59:45;;;;;;;11.05;4.45;;;3.90;99.90;;;;;;4982403;28;20027;-64
2024/01/21 12:02:11;;;;;;;10.43;4.18;;;3.80;99.90;;;;;;4983736;28;20030;-64
2024/01/21 12:04:37;;;;;;;11.27;4.70;;;3.70;99.90;;;;;;4986825;28;20022;-64
2024/01/21 12:07:03;;;;;;;15.38;5.28;;;3.80;99.90;;;;;;4987178;28;20109;-64
2024/01/21 12:09:29;;;;;;;12.82;5.38;;;3.80;99.90;;;;;;4983184;28;20438;-65
2024/01/21 12:11:58;;;;;;;9.20;3.95;;;3.80;99.90;;;;;;4988089;28;20025;-65
2024/01/21 12:14:23;;;;;;;11.25;4.90;;;3.80;99.90;;;;;;4987036;28;20541;-65
2024/01/21 12:16:51;;;;;;;9.40;3.90;;;3.90;99.90;;;;;;4986914;28;20026;-65
2024/01/21 12:19:17;;;;;;;12.10;5.18;;;4.00;99.90;;;;;;4979014;28;20037;-65
2024/01/21 12:21:43;;;;;;;13.70;5.03;;;4.00;99.90;;;;;;4991514;28;20038;-65
2024/01/21 12:24:09;;;;;;;12.90;5.45;;;3.90;99.90;;;;;;4991582;28;20033;-67
2024/01/21 12:26:35;;;;;;;13.00;5.35;;;3.90;99.90;;;;;;4990270;28;20034;-65
2024/01/21 12:29:06;;;;;;;12.18;4.55;;;3.90;99.90;;;;;;4985887;28;20030;-65
2024/01/21 12:31:36;;;;;;;13.75;6.15;;;3.80;99.90;;;;;;4984781;28;20394;-65
2024/01/21 12:34:03;;;;;;;11.35;5.00;;;3.70;99.90;;;;;;4983919;28;20085;-65
2024/01/21 12:36:33;;;;;;;12.18;5.28;;;3.60;99.90;;;;;;4983004;28;20062;-65
2024/01/21 12:38:59;;;;;;;;;;;3.60;99.90;;;;;;4983847;28;20065;-65
2024/01/21 12:41:25;;;;;;;12.88;5.57;;;3.70;99.90;;;;;;5002501;28;19910;-65
2024/01/21 12:43:51;;;;;;;11.55;4.65;;;3.60;99.90;;;;;;4981371;28;20042;-65
2024/01/21 12:46:20;;;;;;;13.43;5.78;;;3.70;99.90;;;;;;4983860;28;20085;-64
2024/01/21 12:48:47;;;;;;;15.90;6.73;;;3.70;99.90;;;;;;4976243;28;20440;-64
2024/01/21 12:51:14;;;;;;;14.10;4.93;;;6.00;99.90;;;;;;4987655;28;20030;-65